Time;durP1;ratioP1;P1;durP2;ratioP2;P2;SDS_P1;SDS_P2;PMS_P1;PMS_P2;Temp;Humidity;BMP_temperature;BMP_pressure;BME280_temperature;BME280_humidity;BME280_pressure;Samples;Min_cycle;Max_cycle;Signal;HPM_P1;HPM_P2
2021/11/05 00:02:05;;;;;;;72.30;43.17;;;;;;;12.16;99.10;101370.92;1707465;84;21368;-57
2021/11/05 00:05:13;;;;;;;76.90;44.05;;;;;;;12.14;99.21;101357.86;1707540;84;21364;-57
2021/11/05 00:08:23;;;;;;;77.92;42.62;;;;;;;12.15;99.34;101360.06;1707354;84;21928;-57
2021/11/05 00:11:30;;;;;;;76.07;44.88;;;;;;;12.14;99.48;101353.73;1707366;84;21380;-58
2021/11/05 00:14:35;;;;;;;81.55;43.42;;;;;;;12.14;99.57;101354.23;1707367;84;21250;-57
2021/11/05 00:17:41;;;;;;;78.12;41.95;;;;;;;12.14;99.64;101357.86;1707411;84;21474;-57
2021/11/05 00:20:47;;;;;;;77.08;43.20;;;;;;;12.14;99.74;101351.50;1707393;84;21332;-58
2021/11/05 00:23:54;;;;;;;74.27;41.42;;;;;;;12.14;99.80;101350.12;1707345;84;21367;-57
2021/11/05 00:26:59;;;;;;;80.40;44.45;;;;;;;12.15;99.93;101342.23;1707326;84;21218;-59
2021/11/05 00:30:04;;;;;;;84.65;45.88;;;;;;;12.14;100.00;101344.13;1707342;84;21393;-58
2021/11/05 00:33:11;;;;;;;76.87;45.25;;;;;;;12.16;100.00;101353.08;1707450;84;21376;-59
2021/11/05 00:36:18;;;;;;;76.25;42.50;;;;;;;12.17;100.00;101346.55;1707527;84;21210;-58
2021/11/05 00:39:25;;;;;;;75.40;43.55;;;;;;;12.18;100.00;101355.13;1707382;84;21340;-57
2021/11/05 00:42:31;;;;;;;81.82;42.53;;;;;;;12.19;100.00;101360.11;1707341;84;21365;-57
2021/11/05 00:45:37;;;;;;;72.05;41.40;;;;;;;12.20;100.00;101346.22;1706273;82;21310;-58
2021/11/05 00:48:43;;;;;;;80.75;45.25;;;;;;;12.21;100.00;101351.21;1707322;84;21407;-57
2021/11/05 00:51:50;;;;;;;80.55;44.33;;;;;;;12.23;100.00;101353.25;1707376;84;21361;-58
2021/11/05 00:54:56;;;;;;;78.28;43.65;;;;;;;12.23;100.00;101348.63;1707287;83;21222;-58
2021/11/05 00:58:01;;;;;;;79.58;44.80;;;;;;;12.24;100.00;101342.11;1707354;84;21408;-58
2021/11/05 01:01:07;;;;;;;79.80;43.23;;;;;;;12.25;100.00;101341.61;1707354;84;21349;-58
2021/11/05 01:04:13;;;;;;;74.92;43.75;;;;;;;12.25;100.00;101334.24;1707449;84;21400;-57
2021/11/05 01:07:19;;;;;;;75.65;42.95;;;;;;;12.25;100.00;101333.38;1707283;84;21229;-57
2021/11/05 01:10:26;;;;;;;70.62;40.63;;;;;;;12.24;100.00;101330.29;1707366;84;21357;-58
2021/11/05 01:13:33;;;;;;;71.60;41.77;;;;;;;12.24;100.00;101335.25;1707374;84;21226;-58
2021/11/05 01:16:40;;;;;;;71.10;40.88;;;;;;;12.24;100.00;101343.48;1707334;84;21423;-58
2021/11/05 01:19:45;;;;;;;72.03;42.67;;;;;;;12.24;100.00;101339.90;1707331;84;21360;-57
2021/11/05 01:22:51;;;;;;;71.12;41.95;;;;;;;12.24;100.00;101339.36;1707466;84;21894;-58
2021/11/05 01:25:58;;;;;;;71.87;42.10;;;;;;;12.23;100.00;101329.92;1707184;84;21368;-57
2021/11/05 01:29:03;;;;;;;78.45;40.88;;;;;;;12.22;100.00;101333.20;1707361;84;21763;-57
2021/11/05 01:32:12;;;;;;;74.80;40.83;;;;;;;12.22;100.00;101329.08;1714349;83;21863;-58
2021/11/05 01:35:18;;;;;;;74.53;40.20;;;;;;;12.24;100.00;101335.25;1654472;86;21279;-58
2021/11/05 01:38:24;;;;;;;71.07;41.42;;;;;;;12.24;100.00;101338.52;1647842;86;21358;-58
2021/11/05 01:41:30;;;;;;;74.32;41.42;;;;;;;12.23;100.00;101326.67;1689178;85;21358;-58
2021/11/05 01:44:36;;;;;;;70.47;40.08;;;;;;;12.24;100.00;101322.89;1654146;84;21224;-57
2021/11/05 01:47:43;;;;;;;74.67;40.10;;;;;;;12.24;100.00;101312.45;1685949;83;21294;-59
2021/11/05 01:50:49;;;;;;;73.78;40.08;;;;;;;12.24;100.00;101309.16;1649824;86;21209;-58
2021/11/05 01:53:55;;;;;;;78.45;41.55;;;;;;;12.24;100.00;101305.05;1686423;83;21250;-57
2021/11/05 01:57:02;;;;;;;82.30;40.85;;;;;;;12.24;100.00;101302.30;1685773;83;21356;-57
2021/11/05 02:00:08;;;;;;;73.00;38.53;;;;;;;12.25;100.00;101296.31;1643589;86;21212;-58
2021/11/05 02:03:14;;;;;;;79.47;40.12;;;;;;;12.26;100.00;101304.37;1652980;85;21769;-58
2021/11/05 02:06:19;;;;;;;88.50;43.98;;;;;;;12.26;100.00;101303.01;1685723;84;21855;-58
2021/11/05 02:09:28;;;;;;;77.55;39.83;;;;;;;12.28;100.00;101298.72;1651985;86;21232;-58
2021/11/05 02:12:32;;;;;;;76.50;39.88;;;;;;;12.29;100.00;101282.08;1685737;83;21243;-59
2021/11/05 02:15:38;;;;;;;86.02;43.60;;;;;;;12.32;100.00;101289.15;1687172;84;21211;-58
2021/11/05 02:18:46;;;;;;;81.30;42.10;;;;;;;12.34;100.00;101283.83;1653557;85;21216;-57
2021/11/05 02:21:54;;;;;;;75.95;40.20;;;;;;;12.37;100.00;101285.40;1660183;85;21362;-58
2021/11/05 02:24:59;;;;;;;84.03;43.45;;;;;;;12.39;100.00;101281.95;1660066;86;21358;-58
2021/11/05 02:28:07;;;;;;;83.55;43.23;;;;;;;12.41;100.00;101286.77;1659618;85;21378;-59
2021/11/05 02:31:12;;;;;;;81.90;43.28;;;;;;;12.43;100.00;101290.22;1660118;86;21275;-58
2021/11/05 02:34:17;;;;;;;83.92;43.45;;;;;;;12.44;100.00;101291.43;1686951;84;21228;-59
2021/11/05 02:37:30;;;;;;;81.90;41.15;;;;;;;12.45;100.00;101289.52;1686505;83;21739;-57
2021/11/05 02:40:35;;;;;;;82.78;42.83;;;;;;;12.47;100.00;101284.23;1686800;85;21231;-58
2021/11/05 02:43:41;;;;;;;95.07;45.43;;;;;;;12.49;100.00;101280.81;1651731;85;21229;-58
2021/11/05 02:46:47;;;;;;;89.17;44.18;;;;;;;12.50;100.00;101285.27;1671035;83;21346;-58
2021/11/05 02:49:53;;;;;;;85.92;44.25;;;;;;;12.51;100.00;101279.27;1652744;86;21875;-58
2021/11/05 02:53:00;;;;;;;88.55;46.65;;;;;;;12.54;100.00;101287.17;1651298;85;21407;-58
2021/11/05 02:56:06;;;;;;;90.67;45.10;;;;;;;12.55;100.00;101290.26;1654015;86;21200;-57
2021/11/05 02:59:13;;;;;;;92.37;44.83;;;;;;;12.55;100.00;101287.01;1654038;86;21205;-59
2021/11/05 03:02:19;;;;;;;92.75;46.42;;;;;;;12.58;100.00;101292.67;1652006;85;21231;-58
2021/11/05 03:05:24;;;;;;;89.05;46.13;;;;;;;12.58;100.00;101296.28;1654096;86;21268;-58
2021/11/05 03:08:30;;;;;;;91.97;47.48;;;;;;;12.60;100.00;101299.73;1653554;85;21333;-57
2021/11/05 03:11:39;;;;;;;98.15;46.77;;;;;;;12.61;100.00;101294.58;1653771;86;21221;-58
2021/11/05 03:14:45;;;;;;;95.38;45.98;;;;;;;12.61;100.00;101290.45;1652334;86;21217;-57
2021/11/05 03:17:50;;;;;;;90.40;45.52;;;;;;;12.64;100.00;101290.62;1654472;85;21243;-57
2021/11/05 03:20:56;;;;;;;90.95;45.03;;;;;;;12.63;100.00;101288.91;1653008;86;21222;-57
2021/11/05 03:24:02;;;;;;;93.15;45.33;;;;;;;12.64;100.00;101287.87;1652204;85;21289;-57
2021/11/05 03:27:08;;;;;;;83.40;42.90;;;;;;;12.65;100.00;101278.13;1654497;85;21808;-58
2021/11/05 03:30:19;;;;;;;89.37;43.58;;;;;;;12.66;100.00;101288.07;1653243;86;21575;-57
2021/11/05 03:33:24;;;;;;;88.27;43.48;;;;;;;12.69;100.00;101281.37;1654326;85;21252;-58
2021/11/05 03:36:30;;;;;;;88.80;42.55;;;;;;;12.70;100.00;101282.57;1653834;86;21204;-57
2021/11/05 03:39:36;;;;;;;91.12;44.63;;;;;;;12.72;100.00;101283.27;1652321;86;21337;-58
2021/11/05 03:42:41;;;;;;;92.60;43.95;;;;;;;12.73;100.00;101281.39;1652598;85;21777;-58
2021/11/05 03:45:48;;;;;;;87.82;43.68;;;;;;;12.74;100.00;101266.62;1652498;86;21586;-58
2021/11/05 03:48:55;;;;;;;91.02;43.60;;;;;;;12.74;100.00;101260.63;1653023;84;21229;-58
2021/11/05 03:52:01;;;;;;;93.35;44.03;;;;;;;12.75;100.00;101260.95;1652610;85;21736;-58
2021/11/05 03:55:08;;;;;;;89.87;45.70;;;;;;;12.76;100.00;101268.19;1653131;86;21359;-56
2021/11/05 03:58:14;;;;;;;89.50;44.08;;;;;;;12.78;100.00;101268.02;1652835;85;21308;-59
2021/11/05 04:01:20;;;;;;;82.40;42.38;;;;;;;12.80;100.00;101271.44;1651458;86;21228;-58
2021/11/05 04:04:25;;;;;;;85.32;42.25;;;;;;;12.81;100.00;101264.39;1652083;86;21200;-60
2021/11/05 04:07:33;;;;;;;87.57;45.43;;;;;;;12.84;100.00;101270.09;1654204;85;21253;-59
2021/11/05 04:10:38;;;;;;;80.95;43.23;;;;;;;12.85;100.00;101263.05;1654123;86;21263;-59
2021/11/05 04:13:44;;;;;;;78.55;42.62;;;;;;;12.89;100.00;101260.28;1653988;85;21323;-60
2021/11/05 04:16:49;;;;;;;81.57;44.13;;;;;;;12.89;100.00;101247.92;1653874;85;21212;-59
2021/11/05 04:19:55;;;;;;;84.60;46.45;;;;;;;12.93;100.00;101257.56;1653471;86;21181;-59
2021/11/05 04:23:04;;;;;;;87.37;45.70;;;;;;;12.95;100.00;101247.77;1654156;85;21243;-59
2021/11/05 04:26:09;;;;;;;88.85;44.90;;;;;;;12.97;100.00;101240.23;1654141;86;21216;-59
2021/11/05 04:29:17;;;;;;;94.55;50.38;;;;;;;12.99;100.00;101245.88;1653333;86;21256;-59
2021/11/05 04:32:23;;;;;;;88.65;47.25;;;;;;;13.02;100.00;101246.95;1653932;85;21259;-59
2021/11/05 04:35:28;;;;;;;84.60;48.02;;;;;;;13.03;100.00;101243.69;1652917;86;21200;-59
2021/11/05 04:38:34;;;;;;;82.62;48.42;;;;;;;13.05;100.00;101243.02;1654140;85;21259;-59
2021/11/05 04:41:40;;;;;;;94.45;51.90;;;;;;;13.08;100.00;101244.88;1653552;86;21229;-59
2021/11/05 04:44:45;;;;;;;87.42;49.25;;;;;;;13.08;100.00;101242.13;1654317;86;21345;-60
2021/11/05 04:47:51;;;;;;;93.75;51.70;;;;;;;13.12;100.00;101249.53;1654091;85;21232;-59
2021/11/05 04:50:58;;;;;;;95.15;53.00;;;;;;;13.13;100.00;101247.98;1655313;86;21251;-59
2021/11/05 04:54:06;;;;;;;96.53;54.03;;;;;;;13.14;100.00;101242.85;1654113;86;21332;-59
2021/11/05 04:57:13;;;;;;;97.85;54.65;;;;;;;13.18;100.00;101245.58;1655088;85;21362;-58
2021/11/05 05:00:19;;;;;;;95.28;53.80;;;;;;;13.18;100.00;101249.70;1658048;86;21366;-59
2021/11/05 05:03:25;;;;;;;96.35;54.80;;;;;;;13.20;100.00;101251.78;1639725;86;21267;-61
2021/11/05 05:06:31;;;;;;;100.62;56.85;;;;;;;13.21;100.00;101261.73;1659902;83;21866;-60
2021/11/05 05:09:39;;;;;;;81.60;50.98;;;;;;;13.24;100.00;101260.55;1682947;85;21367;-60
2021/11/05 05:12:37;;;;;;;85.40;49.35;;;;;;;13.25;100.00;101265.88;1682208;85;21239;-60
2021/11/05 05:15:43;;;;;;;81.00;48.52;;;;;;;13.26;100.00;101262.09;1682391;85;21398;-59
2021/11/05 05:18:47;;;;;;;76.97;46.65;;;;;;;13.28;100.00;101261.41;1682654;85;21527;-60
2021/11/05 05:21:53;;;;;;;68.10;42.23;;;;;;;13.31;100.00;101266.56;1682885;85;21394;-59
2021/11/05 05:24:58;;;;;;;66.72;39.55;;;;;;;13.33;100.00;101276.84;1682907;85;21318;-61
2021/11/05 05:28:04;;;;;;;64.05;40.28;;;;;;;13.35;100.00;101280.84;1683022;85;21399;-59
2021/11/05 05:31:13;;;;;;;52.65;36.05;;;;;;;13.38;100.00;101281.86;1682960;85;21896;-60
2021/11/05 05:34:18;;;;;;;56.53;35.78;;;;;;;13.42;100.00;101285.97;1682661;85;21346;-60
2021/11/05 05:37:24;;;;;;;56.83;35.48;;;;;;;13.44;100.00;101288.05;1674427;84;21256;-61
2021/11/05 05:40:31;;;;;;;55.95;34.50;;;;;;;13.45;100.00;101296.12;1680665;84;21927;-60
2021/11/05 05:43:36;;;;;;;58.28;35.00;;;;;;;13.49;100.00;101299.39;1680308;85;21248;-60
2021/11/05 05:46:42;;;;;;;53.60;34.27;;;;;;;13.51;100.00;101297.31;1669906;85;21351;-60
2021/11/05 05:49:49;;;;;;;57.23;34.78;;;;;;;13.53;100.00;101298.00;1649473;80;21791;-60
2021/11/05 05:52:54;;;;;;;50.67;32.83;;;;;;;13.56;100.00;101295.44;1713300;83;21231;-60
2021/11/05 05:56:00;;;;;;;53.63;32.90;;;;;;;13.59;100.00;101298.68;1701607;82;21765;-60
2021/11/05 05:59:07;;;;;;;53.25;32.28;;;;;;;13.63;100.00;101304.70;1675380;84;21237;-59
2021/11/05 06:02:16;;;;;;;53.85;31.15;;;;;;;13.70;100.00;101307.95;1702919;82;21337;-60
2021/11/05 06:05:21;;;;;;;50.03;31.87;;;;;;;13.75;100.00;101304.71;1646144;85;21275;-58
2021/11/05 06:08:27;;;;;;;44.95;30.50;;;;;;;13.78;100.00;101302.45;1710245;83;21235;-59
2021/11/05 06:11:32;;;;;;;48.10;30.72;;;;;;;13.85;100.00;101306.74;1674179;85;21238;-61
2021/11/05 06:14:38;;;;;;;49.30;31.65;;;;;;;13.87;100.00;101312.44;1684781;85;21800;-60
2021/11/05 06:17:46;;;;;;;47.43;29.10;;;;;;;13.90;100.00;101305.20;1666825;84;21782;-61
2021/11/05 06:20:51;;;;;;;47.08;30.55;;;;;;;13.92;100.00;101301.73;1711995;84;21188;-62
2021/11/05 06:23:57;;;;;;;48.83;30.65;;;;;;;13.95;100.00;101311.55;1676347;84;21817;-60
2021/11/05 06:27:06;;;;;;;46.65;30.40;;;;;;;13.98;100.00;101302.94;1719203;82;21385;-60
2021/11/05 06:30:14;;;;;;;42.62;28.23;;;;;;;14.02;100.00;101305.67;1693638;84;21259;-60
2021/11/05 06:33:23;;;;;;;49.23;30.60;;;;;;;14.04;100.00;101304.48;1675079;85;21233;-61
2021/11/05 06:36:29;;;;;;;45.88;29.45;;;;;;;14.07;100.00;101310.14;1713441;84;21658;-62
2021/11/05 06:39:36;;;;;;;41.83;26.75;;;;;;;14.12;100.00;101303.59;1676247;85;21201;-61
2021/11/05 06:42:43;;;;;;;42.05;27.05;;;;;;;14.16;100.00;101302.22;1713270;84;21615;-60
2021/11/05 06:45:49;;;;;;;43.08;26.97;;;;;;;14.21;100.00;101301.14;1675564;85;21301;-61
2021/11/05 06:48:58;;;;;;;42.48;27.50;;;;;;;14.26;100.00;101306.52;1712950;83;21241;-60
2021/11/05 06:52:04;;;;;;;46.90;27.55;;;;;;;14.31;100.00;101300.47;1667172;82;21252;-64
2021/11/05 06:55:11;;;;;;;40.30;27.70;;;;;;;14.35;100.00;101310.11;1675654;85;21212;-62
2021/11/05 06:58:18;;;;;;;38.17;26.45;;;;;;;14.40;100.00;101309.90;1677478;84;21251;-61
2021/11/05 07:01:23;;;;;;;40.40;25.72;;;;;;;14.44;99.56;101295.25;1674604;85;21905;-61
2021/11/05 07:04:29;;;;;;;42.38;25.57;;;;;;;14.48;99.33;101304.87;1680123;85;21793;-60
2021/11/05 07:07:38;;;;;;;44.23;27.10;;;;;;;14.53;99.06;101303.31;1680137;84;21954;-61
2021/11/05 07:10:47;;;;;;;41.80;26.60;;;;;;;14.59;98.55;101309.98;1678048;84;21907;-61
2021/11/05 07:13:52;;;;;;;36.40;24.07;;;;;;;14.66;98.30;101301.35;1679512;84;21804;-60
2021/11/05 07:16:58;;;;;;;39.60;25.97;;;;;;;14.73;98.06;101295.47;1654150;85;21587;-61
2021/11/05 07:20:04;;;;;;;36.25;26.02;;;;;;;14.80;97.28;101297.83;1654048;86;21402;-61
2021/11/05 07:23:11;;;;;;;38.50;25.20;;;;;;;14.83;96.52;101304.36;1663723;85;21267;-61
2021/11/05 07:26:17;;;;;;;41.25;25.80;;;;;;;14.88;96.00;101295.02;1679830;85;21979;-62
2021/11/05 07:29:27;;;;;;;39.03;25.45;;;;;;;14.92;95.46;101301.37;1678500;85;21223;-61
2021/11/05 07:32:34;;;;;;;36.30;24.05;;;;;;;14.93;94.93;101296.22;1681232;84;21254;-61
2021/11/05 07:35:42;;;;;;;42.62;26.25;;;;;;;14.96;94.47;101295.84;1678383;85;21246;-60
2021/11/05 07:38:48;;;;;;;37.78;25.52;;;;;;;14.99;94.12;101296.86;1670254;85;21379;-61
2021/11/05 07:41:55;;;;;;;36.83;24.47;;;;;;;15.06;94.13;101301.64;1680647;84;21366;-61
2021/11/05 07:45:03;;;;;;;32.80;24.70;;;;;;;15.14;93.94;101312.11;1672566;85;22116;-61
2021/11/05 07:48:10;;;;;;;37.35;24.05;;;;;;;15.23;93.65;101313.76;1677942;84;21252;-60
2021/11/05 07:51:15;;;;;;;34.90;23.62;;;;;;;15.33;93.29;101311.63;1671249;85;21213;-60
2021/11/05 07:54:26;;;;;;;30.43;23.07;;;;;;;15.44;92.84;101307.09;1670556;85;21216;-61
2021/11/05 07:57:33;;;;;;;37.48;24.32;;;;;;;15.55;92.43;101306.65;1693395;82;22063;-60
2021/11/05 08:00:44;;;;;;;35.45;23.73;;;;;;;15.65;92.09;101306.39;1717187;83;21414;-60
2021/11/05 08:03:58;;;;;;;31.93;23.00;;;;;;;15.74;91.36;101303.88;1680490;84;21253;-61
2021/11/05 08:07:07;;;;;;;36.10;23.67;;;;;;;15.78;90.80;101299.17;1718147;81;21370;-60
2021/11/05 08:10:20;;;;;;;31.62;22.07;;;;;;;15.86;90.16;101306.52;1714582;82;21310;-60
2021/11/05 08:13:26;;;;;;;32.10;23.70;;;;;;;15.92;89.79;101312.70;1714326;83;21319;-61
2021/11/05 08:16:32;;;;;;;36.77;24.00;;;;;;;15.97;89.19;101312.96;1680911;85;21273;-60
2021/11/05 08:19:39;;;;;;;35.35;23.05;;;;;;;16.02;88.98;101318.27;1670358;85;21232;-60
2021/11/05 08:22:47;;;;;;;36.38;23.65;;;;;;;16.11;88.73;101315.75;1678888;85;21240;-61
2021/11/05 08:25:56;;;;;;;33.80;21.95;;;;;;;16.21;88.44;101314.96;1671053;85;21237;-61
2021/11/05 08:29:02;;;;;;;30.48;21.57;;;;;;;16.32;88.11;101311.72;1679912;85;21288;-61
2021/11/05 08:32:09;;;;;;;29.95;22.30;;;;;;;16.33;86.96;101305.14;1713587;83;21224;-61
2021/11/05 08:35:16;;;;;;;32.93;22.90;;;;;;;16.31;86.51;101305.01;1666044;85;21228;-61
2021/11/05 08:38:22;;;;;;;28.87;20.80;;;;;;;16.28;86.51;101314.52;1712248;82;21452;-61
2021/11/05 08:41:27;;;;;;;33.23;22.98;;;;;;;16.26;86.55;101308.86;1713081;83;21350;-60
2021/11/05 08:44:33;;;;;;;30.88;23.18;;;;;;;16.27;86.50;101315.58;1711514;83;21347;-61
2021/11/05 08:47:41;;;;;;;28.30;21.33;;;;;;;16.30;86.38;101312.94;1678951;85;21863;-61
2021/11/05 08:50:52;;;;;;;32.17;22.37;;;;;;;16.29;86.29;101315.38;1679229;85;21448;-61
2021/11/05 08:53:59;;;;;;;26.57;21.48;;;;;;;16.26;86.24;101312.48;1678115;81;21256;-60
2021/11/05 08:57:04;;;;;;;30.97;21.77;;;;;;;16.24;86.38;101303.52;1711651;82;21252;-60
2021/11/05 09:00:12;;;;;;;29.37;21.23;;;;;;;16.19;86.41;101308.76;1664295;85;21217;-58
2021/11/05 09:03:18;;;;;;;30.70;22.52;;;;;;;16.13;86.70;101305.89;1713682;83;21382;-59
2021/11/05 09:06:26;;;;;;;29.35;21.85;;;;;;;16.14;87.02;101295.20;1674972;85;21802;-60
2021/11/05 09:09:32;;;;;;;35.85;23.15;;;;;;;16.15;87.16;101293.63;1716676;82;21342;-60
2021/11/05 09:12:39;;;;;;;33.48;23.07;;;;;;;16.19;87.23;101300.98;1726771;82;21382;-60
2021/11/05 09:15:44;;;;;;;33.20;22.35;;;;;;;16.24;87.04;101299.38;1658090;84;21236;-59
2021/11/05 09:18:53;;;;;;;30.35;21.65;;;;;;;16.28;86.77;101291.58;1673295;83;21225;-59
2021/11/05 09:21:58;;;;;;;31.55;22.93;;;;;;;16.24;86.51;101291.09;1700325;82;21564;-60
2021/11/05 09:25:06;;;;;;;32.65;23.62;;;;;;;16.19;86.74;101278.36;1709214;83;21596;-59
2021/11/05 09:28:11;;;;;;;31.60;23.25;;;;;;;16.25;86.86;101279.52;1675723;85;22185;-59
2021/11/05 09:31:17;;;;;;;33.23;23.38;;;;;;;16.29;86.69;101270.66;1677517;85;21897;-58
2021/11/05 09:34:22;;;;;;;29.80;22.37;;;;;;;16.35;86.55;101267.13;1678235;85;21826;-58
2021/11/05 09:37:28;;;;;;;28.92;22.05;;;;;;;16.40;86.33;101266.03;1652453;87;21240;-59
2021/11/05 09:40:35;;;;;;;31.17;23.57;;;;;;;16.43;86.00;101275.31;1681535;85;21390;-59
2021/11/05 09:43:41;;;;;;;34.48;23.22;;;;;;;16.57;86.19;101274.14;1678405;85;21750;-60
2021/11/05 09:46:48;;;;;;;29.48;22.75;;;;;;;16.83;85.87;101273.08;1679811;84;21216;-59
2021/11/05 09:49:54;;;;;;;33.42;22.67;;;;;;;17.02;84.77;101266.40;1715713;83;21362;-59
2021/11/05 09:53:01;;;;;;;31.20;22.05;;;;;;;17.02;83.18;101269.16;1676468;84;21304;-59
2021/11/05 09:56:07;;;;;;;29.85;21.48;;;;;;;16.92;82.78;101263.63;1676732;84;21590;-61
2021/11/05 09:59:15;;;;;;;30.82;22.40;;;;;;;16.86;82.49;101258.85;1675480;85;21186;-61
2021/11/05 10:02:22;;;;;;;27.10;20.70;;;;;;;16.88;82.43;101256.75;1678337;84;21414;-60
2021/11/05 10:05:28;;;;;;;28.00;20.25;;;;;;;16.90;82.28;101248.61;1678146;84;21857;-61
2021/11/05 10:08:40;;;;;;;26.50;19.55;;;;;;;16.88;82.34;101255.38;1677147;84;21384;-60
2021/11/05 10:11:48;;;;;;;28.65;21.73;;;;;;;16.89;82.52;101261.23;1642233;86;21213;-60
2021/11/05 10:15:01;;;;;;;27.82;19.75;;;;;;;17.00;82.67;101264.34;1642281;86;21631;-60
2021/11/05 10:18:25;;;;;;;26.20;20.25;;;;;;;17.09;82.35;101262.33;1626319;87;21240;-62
2021/11/05 10:21:32;;;;;;;27.02;19.92;;;;;;;17.13;81.90;101256.71;1648847;84;21204;-61
2021/11/05 10:24:37;;;;;;;25.27;18.80;;;;;;;17.13;81.39;101256.71;1644688;87;21245;-60
2021/11/05 10:27:44;;;;;;;27.48;19.05;;;;;;;17.05;80.98;101252.69;1644329;87;22120;-62
2021/11/05 10:31:00;;;;;;;25.10;18.80;;;;;;;17.02;81.12;101260.00;1644310;87;21343;-61
2021/11/05 10:34:05;;;;;;;27.20;19.25;;;;;;;17.09;81.21;101261.80;1669894;84;21372;-62
2021/11/05 10:37:12;;;;;;;26.77;19.42;;;;;;;17.19;81.19;101258.69;1702799;82;21382;-61
2021/11/05 10:40:22;;;;;;;26.45;18.98;;;;;;;17.29;80.96;101253.17;1707440;84;21205;-62
2021/11/05 10:43:43;;;;;;;24.65;17.67;;;;;;;17.39;80.56;101255.60;1673090;84;21402;-61
2021/11/05 10:46:49;;;;;;;25.55;17.95;;;;;;;17.41;79.98;101254.34;1649798;85;21209;-60
2021/11/05 10:50:00;;;;;;;25.00;19.27;;;;;;;17.43;79.61;101230.60;1655164;85;21235;-61
2021/11/05 10:53:16;;;;;;;23.87;17.55;;;;;;;17.38;79.22;101246.43;1677526;82;21224;-62
2021/11/05 10:56:28;;;;;;;;;;;;;;;17.38;79.28;101245.56;1684992;82;21248;-62
2021/11/05 10:59:36;;;;;;;21.87;17.15;;;;;;;17.37;79.42;101243.86;1668433;84;20196;-60
2021/11/05 11:02:42;;;;;;;24.70;18.75;;;;;;;17.45;79.45;101253.45;1666493;84;21254;-62
2021/11/05 11:05:48;;;;;;;24.37;18.32;;;;;;;17.52;79.23;101256.59;1671071;86;21217;-63
2021/11/05 11:08:59;;;;;;;26.10;18.62;;;;;;;17.47;78.31;101267.41;1671744;86;21243;-60
2021/11/05 11:12:07;;;;;;;22.70;18.10;;;;;;;17.33;78.56;101257.23;1662918;84;21236;-61
2021/11/05 11:15:43;;;;;;;22.93;17.25;;;;;;;17.28;79.11;101254.75;1653793;86;21269;-60
2021/11/05 11:19:02;;;;;;;26.75;17.85;;;;;;;17.28;79.62;101253.37;1670865;86;21236;-61
2021/11/05 11:22:11;;;;;;;26.73;19.15;;;;;;;17.22;79.72;101250.84;1670038;85;21208;-61
2021/11/05 11:25:20;;;;;;;24.47;19.40;;;;;;;17.14;79.85;101250.98;1655516;86;21309;-61
2021/11/05 11:28:30;;;;;;;25.17;19.20;;;;;;;17.12;80.22;101250.86;1669427;86;21249;-60
2021/11/05 11:31:38;;;;;;;23.32;18.48;;;;;;;17.12;80.54;101251.72;1650254;84;21279;-60
2021/11/05 11:34:47;;;;;;;21.70;18.07;;;;;;;17.13;80.65;101238.72;1645302;87;21299;-60
2021/11/05 11:37:57;;;;;;;22.55;18.37;;;;;;;17.10;80.68;101241.89;1645938;87;21267;-61
2021/11/05 11:41:07;;;;;;;29.45;21.12;;;;;;;17.04;80.89;101235.25;1660471;84;21315;-60
2021/11/05 11:44:14;;;;;;;27.00;20.15;;;;;;;17.01;81.25;101229.25;1661095;85;21291;-61
2021/11/05 11:47:19;;;;;;;26.95;20.95;;;;;;;17.00;81.54;101220.63;1647525;85;21853;-61
2021/11/05 11:50:38;;;;;;;27.65;19.92;;;;;;;17.05;81.90;101219.48;1671656;86;21506;-60
2021/11/05 11:53:45;;;;;;;27.25;19.37;;;;;;;17.13;81.97;101205.00;1659139;86;21825;-60
2021/11/05 11:56:53;;;;;;;25.35;18.27;;;;;;;17.26;82.03;101208.42;1677072;81;21620;-61
2021/11/05 12:00:22;;;;;;;28.75;20.00;;;;;;;17.39;82.00;101201.62;1703656;84;21249;-61
2021/11/05 12:03:28;;;;;;;25.27;18.07;;;;;;;17.48;81.42;101204.59;1650961;86;21249;-61
2021/11/05 12:06:33;;;;;;;26.65;19.67;;;;;;;17.50;81.08;101209.41;1637753;86;21228;-61
2021/11/05 12:09:45;;;;;;;32.48;22.13;;;;;;;17.56;81.01;101207.22;1665095;86;21233;-61
2021/11/05 12:12:51;;;;;;;27.85;20.65;;;;;;;17.60;81.04;101205.78;1646988;85;21288;-61
2021/11/05 12:16:30;;;;;;;25.32;17.35;;;;;;;17.66;80.54;101213.27;1670197;84;21555;-61
2021/11/05 12:19:45;;;;;;;32.27;22.47;;;;;;;17.64;80.21;101207.07;1627168;87;21214;-62
2021/11/05 12:23:18;;;;;;;32.33;23.83;;;;;;;17.57;80.34;101204.25;1640090;87;21281;-60
2021/11/05 12:26:23;;;;;;;28.80;19.37;;;;;;;17.47;80.36;101201.52;1663605;86;21213;-60
2021/11/05 12:29:46;;;;;;;33.65;23.73;;;;;;;17.35;80.57;101194.23;1656831;86;21499;-61
2021/11/05 12:32:51;;;;;;;29.12;21.93;;;;;;;17.28;80.94;101193.86;1671016;84;21222;-60
2021/11/05 12:35:56;;;;;;;31.62;23.18;;;;;;;17.17;81.43;101187.48;1668828;84;21232;-62
2021/11/05 12:39:11;;;;;;;30.25;20.75;;;;;;;17.09;81.74;101184.85;1646990;85;21288;-61
2021/11/05 12:42:21;;;;;;;28.52;20.12;;;;;;;17.01;81.96;101187.23;1664435;84;21524;-60
2021/11/05 12:45:29;;;;;;;23.00;17.80;;;;;;;16.96;82.28;101183.33;1669986;85;21220;-61
2021/11/05 12:48:52;;;;;;;28.12;20.15;;;;;;;16.90;82.66;101181.36;1666943;86;21300;-62
2021/11/05 12:52:00;;;;;;;27.55;20.30;;;;;;;16.85;83.00;101179.19;1655838;85;21208;-61
2021/11/05 12:55:10;;;;;;;31.30;19.52;;;;;;;16.80;83.29;101172.52;1666017;86;21522;-61
2021/11/05 12:58:21;;;;;;;26.95;19.75;;;;;;;16.78;83.50;101174.62;1692058;83;21624;-60
2021/11/05 13:01:28;;;;;;;27.80;19.23;;;;;;;16.74;83.63;101174.70;1704802;83;21235;-60
2021/11/05 13:04:49;;;;;;;30.40;20.57;;;;;;;16.71;83.79;101177.86;1707934;83;21813;-61
2021/11/05 13:09:33;;;;;;;28.35;19.50;;;;;;;16.70;84.11;101174.23;1846457;76;28155;-60
2021/11/05 13:12:40;;;;;;;25.12;18.98;;;;;;;16.63;84.26;101173.83;1798509;78;21302;-60
2021/11/05 13:15:49;;;;;;;26.52;20.65;;;;;;;16.63;84.47;101163.64;1771175;79;22135;-61
2021/11/05 13:18:55;;;;;;;27.45;19.05;;;;;;;16.65;84.56;101167.59;1795751;79;21765;-60
2021/11/05 13:22:12;;;;;;;29.55;20.23;;;;;;;16.67;84.63;101169.61;1801319;79;21702;-61
2021/11/05 13:25:42;;;;;;;25.82;19.30;;;;;;;16.68;84.65;101176.88;1763895;79;21831;-61
2021/11/05 13:28:54;;;;;;;27.95;20.12;;;;;;;16.69;84.71;101168.38;1763516;79;21227;-60
2021/11/05 13:32:19;;;;;;;25.80;19.23;;;;;;;16.71;84.76;101172.33;1792044;79;21221;-60
2021/11/05 13:35:27;;;;;;;25.90;19.27;;;;;;;16.71;84.77;101165.42;1787161;79;21522;-61
2021/11/05 13:38:36;;;;;;;28.47;19.80;;;;;;;16.64;84.85;101170.00;1792884;80;21734;-61
2021/11/05 13:41:47;;;;;;;27.60;20.65;;;;;;;16.56;85.05;101170.13;1796680;79;21871;-61
2021/11/05 13:45:12;;;;;;;28.30;20.30;;;;;;;16.48;85.29;101170.24;1800663;79;21185;-61
2021/11/05 13:48:24;;;;;;;30.10;20.12;;;;;;;16.39;85.59;101173.64;1797403;79;21224;-61
2021/11/05 13:51:43;;;;;;;28.87;21.30;;;;;;;16.28;85.89;101174.97;1783676;79;21207;-61
2021/11/05 13:54:52;;;;;;;28.73;21.20;;;;;;;16.19;86.20;101173.89;1795884;79;21157;-61
2021/11/05 13:57:58;;;;;;;28.55;20.72;;;;;;;16.09;86.60;101171.42;1772075;80;21219;-61
2021/11/05 14:01:05;;;;;;;31.30;20.77;;;;;;;16.01;86.90;101171.56;1776250;79;21770;-61
2021/11/05 14:04:14;;;;;;;32.63;23.22;;;;;;;15.93;87.20;101166.13;1784381;79;21306;-61
2021/11/05 14:07:19;;;;;;;31.95;21.77;;;;;;;15.84;87.60;101157.59;1772929;80;21287;-61
2021/11/05 14:10:24;;;;;;;31.62;23.27;;;;;;;15.76;87.96;101157.69;1774954;79;21818;-59
2021/11/05 14:13:33;;;;;;;29.02;21.52;;;;;;;15.69;88.21;101162.78;1801120;79;21251;-59